sensor_id;sensor_type;location;lat;lon;timestamp;P1;durP1;ratioP1;P2;durP2;ratioP2
37267;SDS011;23154;52.542;13.362;2023-04-01T00:00:29;13.30;;;3.67;;
37267;SDS011;23154;52.542;13.362;2023-04-01T00:02:55;11.85;;;3.60;;
37267;SDS011;23154;52.542;13.362;2023-04-01T00:05:22;14.82;;;3.60;;
37267;SDS011;23154;52.542;13.362;2023-04-01T00:07:49;12.77;;;3.40;;
37267;SDS011;23154;52.542;13.362;2023-04-01T00:10:16;11.40;;;3.35;;
37267;SDS011;23154;52.542;13.362;2023-04-01T00:12:42;10.20;;;3.20;;
37267;SDS011;23154;52.542;13.362;2023-04-01T00:15:08;12.07;;;3.20;;
37267;SDS011;23154;52.542;13.362;2023-04-01T00:17:35;13.75;;;3.20;;
37267;SDS011;23154;52.542;13.362;2023-04-01T00:20:01;10.77;;;3.20;;
37267;SDS011;23154;52.542;13.362;2023-04-01T00:22:27;12.05;;;3.38;;
37267;SDS011;23154;52.542;13.362;2023-04-01T00:24:53;11.60;;;3.00;;
37267;SDS011;23154;52.542;13.362;2023-04-01T00:27:19;9.13;;;3.10;;
37267;SDS011;23154;52.542;13.362;2023-04-01T00:29:45;12.27;;;3.47;;
37267;SDS011;23154;52.542;13.362;2023-04-01T00:32:12;12.88;;;3.55;;
37267;SDS011;23154;52.542;13.362;2023-04-01T00:34:39;12.10;;;3.25;;
37267;SDS011;23154;52.542;13.362;2023-04-01T00:37:05;11.68;;;3.20;;
37267;SDS011;23154;52.542;13.362;2023-04-01T00:39:32;11.50;;;3.25;;
37267;SDS011;23154;52.542;13.362;2023-04-01T00:41:59;10.90;;;3.00;;
37267;SDS011;23154;52.542;13.362;2023-04-01T00:44:26;11.27;;;3.00;;
37267;SDS011;23154;52.542;13.362;2023-04-01T00:46:54;8.77;;;2.85;;
37267;SDS011;23154;52.542;13.362;2023-04-01T00:49:25;12.27;;;3.22;;
37267;SDS011;23154;52.542;13.362;2023-04-01T00:51:55;11.52;;;3.00;;
37267;SDS011;23154;52.542;13.362;2023-04-01T00:54:24;12.65;;;2.90;;
37267;SDS011;23154;52.542;13.362;2023-04-01T00:56:54;13.30;;;3.30;;
37267;SDS011;23154;52.542;13.362;2023-04-01T00:59:27;13.63;;;3.35;;
37267;SDS011;23154;52.542;13.362;2023-04-01T01:01:56;14.13;;;3.38;;
37267;SDS011;23154;52.542;13.362;2023-04-01T01:06:55;10.05;;;3.30;;
37267;SDS011;23154;52.542;13.362;2023-04-01T01:09:56;14.13;;;3.95;;
37267;SDS011;23154;52.542;13.362;2023-04-01T01:34:47;12.90;;;3.67;;
37267;SDS011;23154;52.542;13.362;2023-04-01T01:37:40;15.25;;;3.97;;
37267;SDS011;23154;52.542;13.362;2023-04-01T01:40:09;13.35;;;3.53;;
37267;SDS011;23154;52.542;13.362;2023-04-01T01:42:37;14.65;;;3.40;;
37267;SDS011;23154;52.542;13.362;2023-04-01T01:45:10;14.20;;;3.88;;
37267;SDS011;23154;52.542;13.362;2023-04-01T01:47:39;15.77;;;3.28;;
37267;SDS011;23154;52.542;13.362;2023-04-01T01:50:06;12.63;;;3.20;;
37267;SDS011;23154;52.542;13.362;2023-04-01T01:52:33;12.00;;;3.50;;
37267;SDS011;23154;52.542;13.362;2023-04-01T01:54:58;12.52;;;3.05;;
37267;SDS011;23154;52.542;13.362;2023-04-01T01:57:34;10.02;;;3.20;;
37267;SDS011;23154;52.542;13.362;2023-04-01T02:00:05;15.13;;;3.20;;
37267;SDS011;23154;52.542;13.362;2023-04-01T02:02:40;13.02;;;3.40;;
37267;SDS011;23154;52.542;13.362;2023-04-01T02:05:11;9.55;;;3.35;;
37267;SDS011;23154;52.542;13.362;2023-04-01T02:07:42;12.70;;;2.97;;
37267;SDS011;23154;52.542;13.362;2023-04-01T02:10:11;12.02;;;3.28;;
37267;SDS011;23154;52.542;13.362;2023-04-01T02:12:38;13.77;;;3.65;;
37267;SDS011;23154;52.542;13.362;2023-04-01T02:15:06;12.02;;;3.65;;
37267;SDS011;23154;52.542;13.362;2023-04-01T02:17:39;14.25;;;3.38;;
37267;SDS011;23154;52.542;13.362;2023-04-01T02:20:13;17.70;;;4.15;;
37267;SDS011;23154;52.542;13.362;2023-04-01T02:22:52;14.05;;;3.50;;
37267;SDS011;23154;52.542;13.362;2023-04-01T02:25:22;13.68;;;4.07;;
37267;SDS011;23154;52.542;13.362;2023-04-01T02:27:51;15.25;;;4.20;;
37267;SDS011;23154;52.542;13.362;2023-04-01T02:30:20;12.43;;;3.78;;
37267;SDS011;23154;52.542;13.362;2023-04-01T02:32:46;16.02;;;3.92;;
37267;SDS011;23154;52.542;13.362;2023-04-01T02:35:14;13.65;;;4.00;;
37267;SDS011;23154;52.542;13.362;2023-04-01T02:37:41;16.77;;;4.35;;
37267;SDS011;23154;52.542;13.362;2023-04-01T02:40:08;11.75;;;3.55;;
37267;SDS011;23154;52.542;13.362;2023-04-01T02:42:39;16.65;;;4.53;;
37267;SDS011;23154;52.542;13.362;2023-04-01T02:45:05;15.57;;;3.97;;
37267;SDS011;23154;52.542;13.362;2023-04-01T02:47:32;14.27;;;4.00;;
37267;SDS011;23154;52.542;13.362;2023-04-01T02:49:58;16.13;;;4.07;;
37267;SDS011;23154;52.542;13.362;2023-04-01T02:52:29;13.10;;;3.67;;
37267;SDS011;23154;52.542;13.362;2023-04-01T02:54:55;12.38;;;3.45;;
37267;SDS011;23154;52.542;13.362;2023-04-01T02:57:22;14.02;;;4.22;;
37267;SDS011;23154;52.542;13.362;2023-04-01T02:59:47;13.40;;;4.03;;
37267;SDS011;23154;52.542;13.362;2023-04-01T03:02:13;13.00;;;4.20;;
37267;SDS011;23154;52.542;13.362;2023-04-01T03:04:39;15.15;;;4.10;;
37267;SDS011;23154;52.542;13.362;2023-04-01T03:07:05;17.52;;;4.43;;
37267;SDS011;23154;52.542;13.362;2023-04-01T03:09:30;14.65;;;4.07;;
37267;SDS011;23154;52.542;13.362;2023-04-01T03:11:56;15.77;;;4.22;;
37267;SDS011;23154;52.542;13.362;2023-04-01T03:14:22;13.98;;;3.85;;
37267;SDS011;23154;52.542;13.362;2023-04-01T03:16:48;11.80;;;3.72;;
37267;SDS011;23154;52.542;13.362;2023-04-01T03:19:13;15.65;;;3.85;;
37267;SDS011;23154;52.542;13.362;2023-04-01T03:21:39;13.98;;;3.85;;
37267;SDS011;23154;52.542;13.362;2023-04-01T03:24:05;12.65;;;3.53;;
37267;SDS011;23154;52.542;13.362;2023-04-01T03:26:32;13.25;;;3.72;;
37267;SDS011;23154;52.542;13.362;2023-04-01T03:28:58;14.82;;;3.65;;
37267;SDS011;23154;52.542;13.362;2023-04-01T03:31:23;14.18;;;3.40;;
37267;SDS011;23154;52.542;13.362;2023-04-01T03:33:49;12.55;;;3.67;;
37267;SDS011;23154;52.542;13.362;2023-04-01T03:36:15;13.07;;;3.53;;
37267;SDS011;23154;52.542;13.362;2023-04-01T03:38:41;10.85;;;3.30;;
37267;SDS011;23154;52.542;13.362;2023-04-01T03:41:11;11.60;;;3.35;;
37267;SDS011;23154;52.542;13.362;2023-04-01T03:43:37;11.85;;;3.75;;
37267;SDS011;23154;52.542;13.362;2023-04-01T03:46:03;13.70;;;3.65;;
37267;SDS011;23154;52.542;13.362;2023-04-01T03:48:28;15.73;;;3.22;;
37267;SDS011;23154;52.542;13.362;2023-04-01T03:50:54;14.60;;;3.30;;
37267;SDS011;23154;52.542;13.362;2023-04-01T03:53:20;13.75;;;3.42;;
37267;SDS011;23154;52.542;13.362;2023-04-01T03:55:46;16.63;;;3.58;;
37267;SDS011;23154;52.542;13.362;2023-04-01T03:58:12;26.17;;;6.65;;
37267;SDS011;23154;52.542;13.362;2023-04-01T04:00:37;16.13;;;4.28;;
37267;SDS011;23154;52.542;13.362;2023-04-01T04:03:03;12.43;;;4.10;;
37267;SDS011;23154;52.542;13.362;2023-04-01T04:05:30;15.90;;;3.90;;
37267;SDS011;23154;52.542;13.362;2023-04-01T04:07:56;13.18;;;3.72;;
37267;SDS011;23154;52.542;13.362;2023-04-01T04:10:21;13.75;;;3.75;;
37267;SDS011;23154;52.542;13.362;2023-04-01T04:12:48;13.18;;;4.03;;
37267;SDS011;23154;52.542;13.362;2023-04-01T04:15:14;12.90;;;3.50;;
37267;SDS011;23154;52.542;13.362;2023-04-01T04:17:40;18.02;;;4.18;;
37267;SDS011;23154;52.542;13.362;2023-04-01T04:20:06;15.55;;;4.35;;
37267;SDS011;23154;52.542;13.362;2023-04-01T04:22:33;15.07;;;4.13;;
37267;SDS011;23154;52.542;13.362;2023-04-01T04:24:59;16.00;;;4.22;;
37267;SDS011;23154;52.542;13.362;2023-04-01T04:27:25;13.85;;;4.18;;
37267;SDS011;23154;52.542;13.362;2023-04-01T04:29:50;14.88;;;3.95;;
37267;SDS011;23154;52.542;13.362;2023-04-01T04:32:16;17.83;;;3.92;;
37267;SDS011;23154;52.542;13.362;2023-04-01T04:34:41;15.68;;;4.18;;
37267;SDS011;23154;52.542;13.362;2023-04-01T04:37:07;13.88;;;4.20;;
37267;SDS011;23154;52.542;13.362;2023-04-01T04:39:33;14.65;;;4.20;;
37267;SDS011;23154;52.542;13.362;2023-04-01T04:41:58;17.05;;;4.47;;
37267;SDS011;23154;52.542;13.362;2023-04-01T04:44:24;17.33;;;4.40;;
37267;SDS011;23154;52.542;13.362;2023-04-01T04:46:50;20.23;;;4.65;;
37267;SDS011;23154;52.542;13.362;2023-04-01T04:49:15;15.65;;;4.78;;
37267;SDS011;23154;52.542;13.362;2023-04-01T04:51:41;17.95;;;4.60;;
37267;SDS011;23154;52.542;13.362;2023-04-01T04:54:06;19.83;;;5.30;;
37267;SDS011;23154;52.542;13.362;2023-04-01T04:56:33;18.42;;;5.30;;
37267;SDS011;23154;52.542;13.362;2023-04-01T04:58:58;16.15;;;4.63;;
37267;SDS011;23154;52.542;13.362;2023-04-01T05:01:24;20.05;;;5.57;;
37267;SDS011;23154;52.542;13.362;2023-04-01T05:03:50;16.70;;;4.90;;
37267;SDS011;23154;52.542;13.362;2023-04-01T05:06:16;16.80;;;5.05;;
37267;SDS011;23154;52.542;13.362;2023-04-01T05:08:43;16.60;;;5.05;;
37267;SDS011;23154;52.542;13.362;2023-04-01T05:11:11;17.60;;;5.10;;
37267;SDS011;23154;52.542;13.362;2023-04-01T05:13:38;18.48;;;5.32;;
37267;SDS011;23154;52.542;13.362;2023-04-01T05:16:07;16.52;;;5.28;;
37267;SDS011;23154;52.542;13.362;2023-04-01T05:18:37;19.48;;;5.18;;
37267;SDS011;23154;52.542;13.362;2023-04-01T05:21:02;14.07;;;4.45;;
37267;SDS011;23154;52.542;13.362;2023-04-01T05:23:30;20.25;;;5.43;;
37267;SDS011;23154;52.542;13.362;2023-04-01T05:25:56;18.67;;;4.82;;
37267;SDS011;23154;52.542;13.362;2023-04-01T05:28:22;18.88;;;5.13;;
37267;SDS011;23154;52.542;13.362;2023-04-01T05:30:48;16.25;;;4.53;;
37267;SDS011;23154;52.542;13.362;2023-04-01T05:33:13;19.45;;;4.72;;
37267;SDS011;23154;52.542;13.362;2023-04-01T05:35:40;10.80;;;3.65;;
37267;SDS011;23154;52.542;13.362;2023-04-01T05:38:06;14.50;;;4.47;;
37267;SDS011;23154;52.542;13.362;2023-04-01T05:40:32;17.85;;;4.65;;
37267;SDS011;23154;52.542;13.362;2023-04-01T05:42:58;15.32;;;4.68;;
37267;SDS011;23154;52.542;13.362;2023-04-01T05:45:24;18.35;;;4.78;;
37267;SDS011;23154;52.542;13.362;2023-04-01T05:47:49;18.02;;;5.05;;
37267;SDS011;23154;52.542;13.362;2023-04-01T05:50:15;19.73;;;4.72;;
37267;SDS011;23154;52.542;13.362;2023-04-01T05:52:41;17.00;;;4.95;;
37267;SDS011;23154;52.542;13.362;2023-04-01T05:55:07;18.70;;;5.30;;
37267;SDS011;23154;52.542;13.362;2023-04-01T05:57:33;19.30;;;5.45;;
37267;SDS011;23154;52.542;13.362;2023-04-01T05:59:59;18.85;;;5.25;;
37267;SDS011;23154;52.542;13.362;2023-04-01T06:02:25;16.15;;;5.28;;
37267;SDS011;23154;52.542;13.362;2023-04-01T06:04:53;19.83;;;5.45;;
37267;SDS011;23154;52.542;13.362;2023-04-01T06:07:27;18.42;;;5.30;;
37267;SDS011;23154;52.542;13.362;2023-04-01T06:09:54;19.25;;;5.82;;
37267;SDS011;23154;52.542;13.362;2023-04-01T06:15:36;23.15;;;6.28;;
37267;SDS011;23154;52.542;13.362;2023-04-01T06:21:03;19.65;;;6.20;;
37267;SDS011;23154;52.542;13.362;2023-04-01T06:23:58;23.88;;;6.45;;
37267;SDS011;23154;52.542;13.362;2023-04-01T06:32:01;18.23;;;5.22;;
37267;SDS011;23154;52.542;13.362;2023-04-01T06:42:23;21.05;;;6.53;;
37267;SDS011;23154;52.542;13.362;2023-04-01T06:45:06;20.17;;;6.18;;
37267;SDS011;23154;52.542;13.362;2023-04-01T06:47:52;19.98;;;6.80;;
37267;SDS011;23154;52.542;13.362;2023-04-01T06:50:52;20.40;;;5.88;;
37267;SDS011;23154;52.542;13.362;2023-04-01T06:53:33;17.48;;;6.15;;
37267;SDS011;23154;52.542;13.362;2023-04-01T06:56:32;18.02;;;6.00;;
37267;SDS011;23154;52.542;13.362;2023-04-01T06:59:08;25.35;;;7.80;;
37267;SDS011;23154;52.542;13.362;2023-04-01T07:01:42;19.48;;;6.90;;
37267;SDS011;23154;52.542;13.362;2023-04-01T07:04:28;24.50;;;6.57;;
37267;SDS011;23154;52.542;13.362;2023-04-01T07:07:01;23.52;;;6.25;;
37267;SDS011;23154;52.542;13.362;2023-04-01T07:10:14;19.95;;;5.65;;
37267;SDS011;23154;52.542;13.362;2023-04-01T07:15:28;41.30;;;15.88;;
37267;SDS011;23154;52.542;13.362;2023-04-01T07:18:12;96.50;;;48.97;;
37267;SDS011;23154;52.542;13.362;2023-04-01T07:20:44;22.63;;;6.47;;
37267;SDS011;23154;52.542;13.362;2023-04-01T07:23:32;18.10;;;4.47;;
37267;SDS011;23154;52.542;13.362;2023-04-01T07:28:40;17.08;;;5.00;;
37267;SDS011;23154;52.542;13.362;2023-04-01T07:42:35;15.70;;;5.07;;
37267;SDS011;23154;52.542;13.362;2023-04-01T07:47:34;20.25;;;5.28;;
37267;SDS011;23154;52.542;13.362;2023-04-01T07:50:17;15.52;;;4.97;;
37267;SDS011;23154;52.542;13.362;2023-04-01T07:52:54;16.27;;;5.10;;
37267;SDS011;23154;52.542;13.362;2023-04-01T07:55:50;16.80;;;5.38;;
37267;SDS011;23154;52.542;13.362;2023-04-01T07:58:39;18.48;;;5.45;;
37267;SDS011;23154;52.542;13.362;2023-04-01T08:04:20;11.18;;;3.88;;
37267;SDS011;23154;52.542;13.362;2023-04-01T08:09:30;12.57;;;3.90;;
37267;SDS011;23154;52.542;13.362;2023-04-01T08:20:43;9.70;;;3.45;;
37267;SDS011;23154;52.542;13.362;2023-04-01T08:23:13;8.55;;;3.00;;
37267;SDS011;23154;52.542;13.362;2023-04-01T08:25:48;10.82;;;3.40;;
37267;SDS011;23154;52.542;13.362;2023-04-01T08:28:29;11.13;;;3.47;;
37267;SDS011;23154;52.542;13.362;2023-04-01T08:31:03;10.40;;;3.38;;
37267;SDS011;23154;52.542;13.362;2023-04-01T08:33:49;10.93;;;3.75;;
37267;SDS011;23154;52.542;13.362;2023-04-01T08:36:20;13.05;;;4.72;;
37267;SDS011;23154;52.542;13.362;2023-04-01T08:55:59;19.05;;;6.93;;
37267;SDS011;23154;52.542;13.362;2023-04-01T08:58:52;17.55;;;7.22;;
37267;SDS011;23154;52.542;13.362;2023-04-01T09:13:05;28.00;;;14.43;;
37267;SDS011;23154;52.542;13.362;2023-04-01T09:27:15;23.40;;;12.60;;
37267;SDS011;23154;52.542;13.362;2023-04-01T09:30:17;20.90;;;10.43;;
37267;SDS011;23154;52.542;13.362;2023-04-01T09:44:04;25.23;;;12.90;;
37267;SDS011;23154;52.542;13.362;2023-04-01T09:46:50;20.83;;;11.93;;
37267;SDS011;23154;52.542;13.362;2023-04-01T09:57:22;22.13;;;11.93;;
37267;SDS011;23154;52.542;13.362;2023-04-01T10:11:55;22.02;;;11.65;;
37267;SDS011;23154;52.542;13.362;2023-04-01T10:20:15;27.70;;;15.40;;
37267;SDS011;23154;52.542;13.362;2023-04-01T10:31:13;22.00;;;12.55;;
37267;SDS011;23154;52.542;13.362;2023-04-01T10:36:55;25.60;;;14.77;;
37267;SDS011;23154;52.542;13.362;2023-04-01T10:51:46;21.63;;;12.45;;
37267;SDS011;23154;52.542;13.362;2023-04-01T11:14:20;19.10;;;9.88;;
37267;SDS011;23154;52.542;13.362;2023-04-01T11:16:59;20.17;;;9.82;;
37267;SDS011;23154;52.542;13.362;2023-04-01T11:27:56;21.15;;;11.70;;
37267;SDS011;23154;52.542;13.362;2023-04-01T11:33:31;22.25;;;12.93;;
37267;SDS011;23154;52.542;13.362;2023-04-01T11:36:05;20.70;;;10.27;;
37267;SDS011;23154;52.542;13.362;2023-04-01T11:42:03;22.92;;;11.40;;
37267;SDS011;23154;52.542;13.362;2023-04-01T11:48:01;22.45;;;12.18;;
37267;SDS011;23154;52.542;13.362;2023-04-01T11:59:27;22.45;;;12.75;;
37267;SDS011;23154;52.542;13.362;2023-04-01T12:10:39;24.10;;;14.95;;
37267;SDS011;23154;52.542;13.362;2023-04-01T12:13:28;24.63;;;14.77;;
37267;SDS011;23154;52.542;13.362;2023-04-01T12:16:09;24.70;;;13.88;;
37267;SDS011;23154;52.542;13.362;2023-04-01T12:18:52;23.73;;;13.82;;
37267;SDS011;23154;52.542;13.362;2023-04-01T12:24:20;22.58;;;13.45;;
37267;SDS011;23154;52.542;13.362;2023-04-01T12:32:35;22.40;;;13.18;;
37267;SDS011;23154;52.542;13.362;2023-04-01T12:35:14;21.17;;;12.23;;
37267;SDS011;23154;52.542;13.362;2023-04-01T12:46:13;23.83;;;14.30;;
37267;SDS011;23154;52.542;13.362;2023-04-01T12:51:58;22.02;;;11.77;;
37267;SDS011;23154;52.542;13.362;2023-04-01T13:08:32;23.38;;;14.27;;
37267;SDS011;23154;52.542;13.362;2023-04-01T13:11:23;25.00;;;15.25;;
37267;SDS011;23154;52.542;13.362;2023-04-01T13:14:10;25.17;;;13.48;;
37267;SDS011;23154;52.542;13.362;2023-04-01T13:19:47;26.48;;;15.32;;
37267;SDS011;23154;52.542;13.362;2023-04-01T13:22:41;24.25;;;14.07;;
37267;SDS011;23154;52.542;13.362;2023-04-01T13:25:50;24.20;;;14.52;;
37267;SDS011;23154;52.542;13.362;2023-04-01T13:28:39;23.83;;;13.35;;
37267;SDS011;23154;52.542;13.362;2023-04-01T13:36:30;24.58;;;13.80;;
37267;SDS011;23154;52.542;13.362;2023-04-01T13:39:10;24.30;;;13.77;;
37267;SDS011;23154;52.542;13.362;2023-04-01T13:45:12;22.50;;;12.77;;
37267;SDS011;23154;52.542;13.362;2023-04-01T13:56:08;21.25;;;10.77;;
37267;SDS011;23154;52.542;13.362;2023-04-01T14:06:55;18.77;;;8.45;;
37267;SDS011;23154;52.542;13.362;2023-04-01T14:13:09;17.17;;;8.20;;
37267;SDS011;23154;52.542;13.362;2023-04-01T14:15:59;18.90;;;9.27;;
37267;SDS011;23154;52.542;13.362;2023-04-01T14:21:41;16.88;;;6.38;;
37267;SDS011;23154;52.542;13.362;2023-04-01T14:35:56;18.58;;;6.93;;
37267;SDS011;23154;52.542;13.362;2023-04-01T14:44:17;15.80;;;6.40;;
37267;SDS011;23154;52.542;13.362;2023-04-01T14:52:04;13.82;;;5.57;;
37267;SDS011;23154;52.542;13.362;2023-04-01T14:54:37;14.32;;;5.18;;
37267;SDS011;23154;52.542;13.362;2023-04-01T14:59:41;16.92;;;6.55;;
37267;SDS011;23154;52.542;13.362;2023-04-01T15:08:07;13.43;;;4.93;;
37267;SDS011;23154;52.542;13.362;2023-04-01T15:11:04;15.25;;;5.63;;
37267;SDS011;23154;52.542;13.362;2023-04-01T15:13:48;14.20;;;5.75;;
37267;SDS011;23154;52.542;13.362;2023-04-01T15:16:55;14.80;;;5.47;;
37267;SDS011;23154;52.542;13.362;2023-04-01T15:25:34;15.93;;;6.10;;
37267;SDS011;23154;52.542;13.362;2023-04-01T15:41:43;18.10;;;7.90;;
37267;SDS011;23154;52.542;13.362;2023-04-01T15:55:36;18.58;;;8.13;;
37267;SDS011;23154;52.542;13.362;2023-04-01T16:02:12;17.17;;;7.10;;
37267;SDS011;23154;52.542;13.362;2023-04-01T16:07:21;17.60;;;6.88;;
37267;SDS011;23154;52.542;13.362;2023-04-01T16:15:03;16.98;;;6.82;;
37267;SDS011;23154;52.542;13.362;2023-04-01T16:17:49;16.85;;;6.47;;
37267;SDS011;23154;52.542;13.362;2023-04-01T16:33:58;12.90;;;4.97;;
37267;SDS011;23154;52.542;13.362;2023-04-01T16:47:32;16.55;;;4.93;;
37267;SDS011;23154;52.542;13.362;2023-04-01T16:52:57;13.80;;;4.45;;
37267;SDS011;23154;52.542;13.362;2023-04-01T17:02:10;14.18;;;5.50;;
37267;SDS011;23154;52.542;13.362;2023-04-01T17:06:52;14.73;;;4.57;;
37267;SDS011;23154;52.542;13.362;2023-04-01T17:20:12;16.23;;;6.90;;
37267;SDS011;23154;52.542;13.362;2023-04-01T17:23:01;16.48;;;5.68;;
37267;SDS011;23154;52.542;13.362;2023-04-01T17:25:53;16.67;;;6.25;;
37267;SDS011;23154;52.542;13.362;2023-04-01T17:33:59;18.10;;;6.82;;
37267;SDS011;23154;52.542;13.362;2023-04-01T17:36:42;18.63;;;7.07;;
37267;SDS011;23154;52.542;13.362;2023-04-01T17:41:57;20.98;;;8.55;;
37267;SDS011;23154;52.542;13.362;2023-04-01T17:58:02;17.85;;;6.68;;
37267;SDS011;23154;52.542;13.362;2023-04-01T18:00:46;17.05;;;7.00;;
37267;SDS011;23154;52.542;13.362;2023-04-01T18:06:03;17.30;;;7.03;;
37267;SDS011;23154;52.542;13.362;2023-04-01T18:26:12;19.13;;;6.80;;
37267;SDS011;23154;52.542;13.362;2023-04-01T18:32:07;20.95;;;8.30;;
37267;SDS011;23154;52.542;13.362;2023-04-01T18:50:52;20.90;;;8.05;;
37267;SDS011;23154;52.542;13.362;2023-04-01T18:53:43;22.30;;;9.13;;
37267;SDS011;23154;52.542;13.362;2023-04-01T19:05:30;20.42;;;8.70;;
37267;SDS011;23154;52.542;13.362;2023-04-01T19:07:48;20.15;;;8.00;;
37267;SDS011;23154;52.542;13.362;2023-04-01T19:10:37;18.23;;;8.02;;
37267;SDS011;23154;52.542;13.362;2023-04-01T19:13:35;22.48;;;8.25;;
37267;SDS011;23154;52.542;13.362;2023-04-01T19:21:57;23.90;;;9.32;;
37267;SDS011;23154;52.542;13.362;2023-04-01T19:27:33;22.90;;;9.90;;
37267;SDS011;23154;52.542;13.362;2023-04-01T19:33:07;22.23;;;9.63;;
37267;SDS011;23154;52.542;13.362;2023-04-01T19:38:39;22.65;;;10.10;;
37267;SDS011;23154;52.542;13.362;2023-04-01T19:46:51;22.55;;;8.32;;
37267;SDS011;23154;52.542;13.362;2023-04-01T20:00:22;24.05;;;10.85;;
37267;SDS011;23154;52.542;13.362;2023-04-01T20:08:13;27.23;;;11.13;;
37267;SDS011;23154;52.542;13.362;2023-04-01T20:16:49;23.17;;;11.02;;
37267;SDS011;23154;52.542;13.362;2023-04-01T20:19:38;22.70;;;10.48;;
37267;SDS011;23154;52.542;13.362;2023-04-01T20:22:16;29.25;;;11.68;;
37267;SDS011;23154;52.542;13.362;2023-04-01T20:24:53;26.75;;;11.70;;
37267;SDS011;23154;52.542;13.362;2023-04-01T20:27:31;25.33;;;11.82;;
37267;SDS011;23154;52.542;13.362;2023-04-01T20:41:33;30.20;;;11.85;;
37267;SDS011;23154;52.542;13.362;2023-04-01T20:44:13;27.50;;;11.20;;
37267;SDS011;23154;52.542;13.362;2023-04-01T20:54:59;28.02;;;11.50;;
37267;SDS011;23154;52.542;13.362;2023-04-01T20:57:45;28.15;;;12.30;;
37267;SDS011;23154;52.542;13.362;2023-04-01T21:03:12;29.33;;;13.05;;
37267;SDS011;23154;52.542;13.362;2023-04-01T21:22:12;26.85;;;11.10;;
37267;SDS011;23154;52.542;13.362;2023-04-01T21:38:43;20.23;;;8.80;;
37267;SDS011;23154;52.542;13.362;2023-04-01T21:41:29;25.45;;;10.27;;
37267;SDS011;23154;52.542;13.362;2023-04-01T21:53:00;25.05;;;10.80;;
37267;SDS011;23154;52.542;13.362;2023-04-01T22:06:28;19.23;;;7.32;;
37267;SDS011;23154;52.542;13.362;2023-04-01T22:09:18;22.90;;;8.18;;
37267;SDS011;23154;52.542;13.362;2023-04-01T22:17:53;19.83;;;8.05;;
37267;SDS011;23154;52.542;13.362;2023-04-01T22:20:37;16.88;;;6.45;;
37267;SDS011;23154;52.542;13.362;2023-04-01T22:23:20;18.60;;;6.32;;
37267;SDS011;23154;52.542;13.362;2023-04-01T22:25:56;17.73;;;6.97;;
37267;SDS011;23154;52.542;13.362;2023-04-01T22:28:45;21.60;;;7.20;;
37267;SDS011;23154;52.542;13.362;2023-04-01T22:50:29;18.63;;;6.50;;
37267;SDS011;23154;52.542;13.362;2023-04-01T22:53:32;15.55;;;5.43;;
37267;SDS011;23154;52.542;13.362;2023-04-01T22:56:09;17.63;;;6.88;;
37267;SDS011;23154;52.542;13.362;2023-04-01T22:58:48;17.20;;;6.10;;
37267;SDS011;23154;52.542;13.362;2023-04-01T23:01:28;18.92;;;6.68;;
37267;SDS011;23154;52.542;13.362;2023-04-01T23:03:59;17.88;;;7.57;;
37267;SDS011;23154;52.542;13.362;2023-04-01T23:06:32;19.10;;;7.15;;
37267;SDS011;23154;52.542;13.362;2023-04-01T23:12:09;16.48;;;5.82;;
37267;SDS011;23154;52.542;13.362;2023-04-01T23:19:54;15.45;;;6.05;;
37267;SDS011;23154;52.542;13.362;2023-04-01T23:35:54;15.88;;;6.13;;
37267;SDS011;23154;52.542;13.362;2023-04-01T23:38:30;15.30;;;6.03;;
37267;SDS011;23154;52.542;13.362;2023-04-01T23:40:59;15.80;;;5.57;;
37267;SDS011;23154;52.542;13.362;2023-04-01T23:43:27;20.50;;;6.45;;
37267;SDS011;23154;52.542;13.362;2023-04-01T23:48:25;18.05;;;5.88;;
37267;SDS011;23154;52.542;13.362;2023-04-01T23:50:56;15.55;;;5.55;;
37267;SDS011;23154;52.542;13.362;2023-04-01T23:53:25;21.30;;;5.43;;
37267;SDS011;23154;52.542;13.362;2023-04-01T23:55:54;15.05;;;5.15;;
37267;SDS011;23154;52.542;13.362;2023-04-01T23:58:24;15.40;;;5.65;;
